sensor_id;sensor_type;location;lat;lon;timestamp;pressure;altitude;pressure_sealevel;temperature;humidity
11413;BME280;5762;43.256;26.960;2023-02-10T00:01:44;101959.75;;;-7.57;100.00
11413;BME280;5762;43.256;26.960;2023-02-10T00:04:13;101960.94;;;-7.55;100.00
11413;BME280;5762;43.256;26.960;2023-02-10T00:06:42;101955.45;;;-7.58;100.00
11413;BME280;5762;43.256;26.960;2023-02-10T00:09:11;101961.17;;;-7.53;100.00
11413;BME280;5762;43.256;26.960;2023-02-10T00:11:40;101956.74;;;-7.52;100.00
11413;BME280;5762;43.256;26.960;2023-02-10T00:14:25;101958.55;;;-7.58;100.00
11413;BME280;5762;43.256;26.960;2023-02-10T00:16:55;101953.42;;;-7.60;100.00
11413;BME280;5762;43.256;26.960;2023-02-10T00:19:24;101964.53;;;-7.56;100.00
11413;BME280;5762;43.256;26.960;2023-02-10T00:21:52;101964.61;;;-7.73;100.00
11413;BME280;5762;43.256;26.960;2023-02-10T00:24:21;101959.02;;;-7.85;100.00
11413;BME280;5762;43.256;26.960;2023-02-10T00:26:50;101963.92;;;-7.86;100.00
11413;BME280;5762;43.256;26.960;2023-02-10T00:29:19;101951.38;;;-7.88;100.00
11413;BME280;5762;43.256;26.960;2023-02-10T00:31:48;101956.30;;;-7.95;100.00
11413;BME280;5762;43.256;26.960;2023-02-10T00:34:17;101959.75;;;-7.89;100.00
11413;BME280;5762;43.256;26.960;2023-02-10T00:36:48;101957.65;;;-8.00;100.00
11413;BME280;5762;43.256;26.960;2023-02-10T00:39:15;101957.39;;;-8.35;100.00
11413;BME280;5762;43.256;26.960;2023-02-10T00:41:45;101963.00;;;-8.34;100.00
11413;BME280;5762;43.256;26.960;2023-02-10T00:44:14;101955.13;;;-8.39;100.00
11413;BME280;5762;43.256;26.960;2023-02-10T00:46:43;101950.11;;;-8.42;100.00
11413;BME280;5762;43.256;26.960;2023-02-10T00:49:12;101956.44;;;-8.78;100.00
11413;BME280;5762;43.256;26.960;2023-02-10T00:51:41;101949.12;;;-9.14;100.00
11413;BME280;5762;43.256;26.960;2023-02-10T00:54:10;101943.23;;;-9.29;100.00
11413;BME280;5762;43.256;26.960;2023-02-10T00:56:40;101944.66;;;-9.30;100.00
11413;BME280;5762;43.256;26.960;2023-02-10T00:59:11;101939.53;;;-9.32;100.00
11413;BME280;5762;43.256;26.960;2023-02-10T01:01:39;101942.63;;;-9.32;100.00
11413;BME280;5762;43.256;26.960;2023-02-10T01:04:07;101947.63;;;-9.35;100.00
11413;BME280;5762;43.256;26.960;2023-02-10T01:06:36;101947.41;;;-9.37;100.00
11413;BME280;5762;43.256;26.960;2023-02-10T01:09:05;101946.08;;;-9.43;100.00
11413;BME280;5762;43.256;26.960;2023-02-10T01:11:34;101943.88;;;-9.55;100.00
11413;BME280;5762;43.256;26.960;2023-02-10T01:14:03;101934.44;;;-9.63;100.00
11413;BME280;5762;43.256;26.960;2023-02-10T01:16:31;101939.36;;;-9.53;100.00
11413;BME280;5762;43.256;26.960;2023-02-10T01:18:59;101941.08;;;-9.40;100.00
11413;BME280;5762;43.256;26.960;2023-02-10T01:21:29;101941.44;;;-9.39;100.00
11413;BME280;5762;43.256;26.960;2023-02-10T01:23:58;101936.66;;;-9.45;100.00
11413;BME280;5762;43.256;26.960;2023-02-10T01:26:27;101936.30;;;-9.35;100.00
11413;BME280;5762;43.256;26.960;2023-02-10T01:28:56;101938.71;;;-9.27;100.00
11413;BME280;5762;43.256;26.960;2023-02-10T01:31:25;101935.13;;;-9.31;100.00
11413;BME280;5762;43.256;26.960;2023-02-10T01:33:54;101932.27;;;-9.28;100.00
11413;BME280;5762;43.256;26.960;2023-02-10T01:36:24;101924.05;;;-9.29;100.00
11413;BME280;5762;43.256;26.960;2023-02-10T01:38:53;101923.34;;;-9.26;100.00
11413;BME280;5762;43.256;26.960;2023-02-10T01:41:22;101930.61;;;-9.24;100.00
11413;BME280;5762;43.256;26.960;2023-02-10T01:43:55;101915.00;;;-9.25;100.00
11413;BME280;5762;43.256;26.960;2023-02-10T01:46:23;101924.22;;;-9.08;100.00
11413;BME280;5762;43.256;26.960;2023-02-10T01:48:52;101919.69;;;-9.06;100.00
11413;BME280;5762;43.256;26.960;2023-02-10T01:51:23;101927.67;;;-8.97;100.00
11413;BME280;5762;43.256;26.960;2023-02-10T01:53:51;101922.42;;;-8.97;100.00
11413;BME280;5762;43.256;26.960;2023-02-10T01:56:21;101923.28;;;-9.02;100.00
11413;BME280;5762;43.256;26.960;2023-02-10T01:58:50;101922.17;;;-9.16;100.00
11413;BME280;5762;43.256;26.960;2023-02-10T02:01:19;101917.52;;;-9.18;100.00
11413;BME280;5762;43.256;26.960;2023-02-10T02:03:47;101920.87;;;-8.99;100.00
11413;BME280;5762;43.256;26.960;2023-02-10T02:06:16;101913.97;;;-9.06;100.00
11413;BME280;5762;43.256;26.960;2023-02-10T02:08:45;101908.09;;;-9.21;100.00
11413;BME280;5762;43.256;26.960;2023-02-10T02:11:21;101909.49;;;-9.33;100.00
11413;BME280;5762;43.256;26.960;2023-02-10T02:16:26;101896.75;;;-9.32;100.00
11413;BME280;5762;43.256;26.960;2023-02-10T02:19:02;101896.58;;;-9.59;100.00
11413;BME280;5762;43.256;26.960;2023-02-10T02:24:06;101904.27;;;-9.39;100.00
11413;BME280;5762;43.256;26.960;2023-02-10T02:31:55;101895.81;;;-9.37;100.00
11413;BME280;5762;43.256;26.960;2023-02-10T02:34:25;101894.61;;;-9.38;100.00
11413;BME280;5762;43.256;26.960;2023-02-10T02:36:56;101898.06;;;-9.32;100.00
11413;BME280;5762;43.256;26.960;2023-02-10T02:39:23;101887.94;;;-9.26;100.00
11413;BME280;5762;43.256;26.960;2023-02-10T02:42:13;101881.49;;;-9.33;100.00
11413;BME280;5762;43.256;26.960;2023-02-10T02:44:34;101876.12;;;-9.31;100.00
11413;BME280;5762;43.256;26.960;2023-02-10T02:47:14;101872.67;;;-9.32;100.00
11413;BME280;5762;43.256;26.960;2023-02-10T02:52:17;101881.91;;;-9.04;100.00
11413;BME280;5762;43.256;26.960;2023-02-10T02:54:46;101870.34;;;-9.01;100.00
11413;BME280;5762;43.256;26.960;2023-02-10T02:59:55;101875.94;;;-9.06;100.00
11413;BME280;5762;43.256;26.960;2023-02-10T03:02:19;101875.70;;;-9.08;100.00
11413;BME280;5762;43.256;26.960;2023-02-10T03:04:48;101868.78;;;-9.09;100.00
11413;BME280;5762;43.256;26.960;2023-02-10T03:07:17;101875.55;;;-9.24;100.00
11413;BME280;5762;43.256;26.960;2023-02-10T03:09:46;101873.75;;;-9.29;100.00
11413;BME280;5762;43.256;26.960;2023-02-10T03:12:15;101868.33;;;-9.72;100.00
11413;BME280;5762;43.256;26.960;2023-02-10T03:14:44;101854.42;;;-9.96;100.00
11413;BME280;5762;43.256;26.960;2023-02-10T03:17:14;101860.92;;;-9.78;100.00
11413;BME280;5762;43.256;26.960;2023-02-10T03:19:42;101864.67;;;-9.53;100.00
11413;BME280;5762;43.256;26.960;2023-02-10T03:22:11;101870.89;;;-9.42;100.00
11413;BME280;5762;43.256;26.960;2023-02-10T03:24:40;101869.81;;;-9.34;100.00
11413;BME280;5762;43.256;26.960;2023-02-10T03:27:09;101863.41;;;-9.36;100.00
11413;BME280;5762;43.256;26.960;2023-02-10T03:29:37;101853.26;;;-9.29;100.00
11413;BME280;5762;43.256;26.960;2023-02-10T03:32:06;101853.13;;;-9.33;100.00
11413;BME280;5762;43.256;26.960;2023-02-10T03:34:35;101854.34;;;-9.37;100.00
11413;BME280;5762;43.256;26.960;2023-02-10T03:37:04;101848.58;;;-9.54;100.00
11413;BME280;5762;43.256;26.960;2023-02-10T03:39:33;101848.45;;;-9.58;100.00
11413;BME280;5762;43.256;26.960;2023-02-10T03:42:02;101848.11;;;-9.53;100.00
11413;BME280;5762;43.256;26.960;2023-02-10T03:44:31;101846.75;;;-9.70;100.00
11413;BME280;5762;43.256;26.960;2023-02-10T03:46:59;101847.00;;;-9.67;100.00
11413;BME280;5762;43.256;26.960;2023-02-10T03:49:28;101848.89;;;-9.81;100.00
11413;BME280;5762;43.256;26.960;2023-02-10T03:51:57;101846.28;;;-9.75;100.00
11413;BME280;5762;43.256;26.960;2023-02-10T03:54:25;101843.94;;;-9.96;100.00
11413;BME280;5762;43.256;26.960;2023-02-10T03:56:54;101842.05;;;-9.94;100.00
11413;BME280;5762;43.256;26.960;2023-02-10T03:59:23;101845.27;;;-9.91;100.00
11413;BME280;5762;43.256;26.960;2023-02-10T04:01:52;101846.79;;;-10.05;100.00
11413;BME280;5762;43.256;26.960;2023-02-10T04:04:21;101845.78;;;-10.15;100.00
11413;BME280;5762;43.256;26.960;2023-02-10T04:06:50;101837.69;;;-10.18;100.00
11413;BME280;5762;43.256;26.960;2023-02-10T04:09:19;101846.48;;;-10.24;100.00
11413;BME280;5762;43.256;26.960;2023-02-10T04:11:48;101840.80;;;-10.12;100.00
11413;BME280;5762;43.256;26.960;2023-02-10T04:14:17;101843.34;;;-10.05;100.00
11413;BME280;5762;43.256;26.960;2023-02-10T04:16:46;101845.34;;;-10.03;100.00
11413;BME280;5762;43.256;26.960;2023-02-10T04:19:14;101833.87;;;-10.25;100.00
11413;BME280;5762;43.256;26.960;2023-02-10T04:21:42;101838.52;;;-10.23;100.00
11413;BME280;5762;43.256;26.960;2023-02-10T04:24:11;101834.59;;;-10.23;100.00
11413;BME280;5762;43.256;26.960;2023-02-10T04:26:40;101833.59;;;-10.33;100.00
11413;BME280;5762;43.256;26.960;2023-02-10T04:29:09;101844.13;;;-10.45;100.00
11413;BME280;5762;43.256;26.960;2023-02-10T04:31:38;101837.88;;;-10.32;100.00
11413;BME280;5762;43.256;26.960;2023-02-10T04:34:06;101834.48;;;-10.16;100.00
11413;BME280;5762;43.256;26.960;2023-02-10T04:36:35;101838.99;;;-10.18;100.00
11413;BME280;5762;43.256;26.960;2023-02-10T04:39:04;101836.38;;;-10.18;100.00
11413;BME280;5762;43.256;26.960;2023-02-10T04:41:32;101843.53;;;-10.14;100.00
11413;BME280;5762;43.256;26.960;2023-02-10T04:44:01;101834.09;;;-10.28;100.00
11413;BME280;5762;43.256;26.960;2023-02-10T04:46:29;101835.18;;;-10.25;100.00
11413;BME280;5762;43.256;26.960;2023-02-10T04:48:58;101831.92;;;-10.58;100.00
11413;BME280;5762;43.256;26.960;2023-02-10T04:51:27;101843.22;;;-10.57;100.00
11413;BME280;5762;43.256;26.960;2023-02-10T04:53:56;101843.44;;;-10.42;100.00
11413;BME280;5762;43.256;26.960;2023-02-10T04:56:24;101837.95;;;-10.39;100.00
11413;BME280;5762;43.256;26.960;2023-02-10T04:58:53;101836.90;;;-10.60;100.00
11413;BME280;5762;43.256;26.960;2023-02-10T05:01:22;101842.28;;;-10.56;100.00
11413;BME280;5762;43.256;26.960;2023-02-10T05:03:50;101841.37;;;-10.50;100.00
11413;BME280;5762;43.256;26.960;2023-02-10T05:06:19;101838.46;;;-10.58;100.00
11413;BME280;5762;43.256;26.960;2023-02-10T05:08:48;101845.95;;;-10.40;100.00
11413;BME280;5762;43.256;26.960;2023-02-10T05:11:17;101842.39;;;-10.34;100.00
11413;BME280;5762;43.256;26.960;2023-02-10T05:13:46;101841.88;;;-10.39;100.00
11413;BME280;5762;43.256;26.960;2023-02-10T05:16:15;101843.33;;;-10.40;100.00
11413;BME280;5762;43.256;26.960;2023-02-10T05:18:44;101840.35;;;-10.41;100.00
11413;BME280;5762;43.256;26.960;2023-02-10T05:21:12;101841.30;;;-10.61;100.00
11413;BME280;5762;43.256;26.960;2023-02-10T05:23:41;101841.69;;;-10.72;100.00
11413;BME280;5762;43.256;26.960;2023-02-10T05:26:09;101844.52;;;-11.12;100.00
11413;BME280;5762;43.256;26.960;2023-02-10T05:28:38;101847.77;;;-10.90;100.00
11413;BME280;5762;43.256;26.960;2023-02-10T05:31:07;101839.08;;;-10.72;100.00
11413;BME280;5762;43.256;26.960;2023-02-10T05:33:35;101845.11;;;-10.96;100.00
11413;BME280;5762;43.256;26.960;2023-02-10T05:36:04;101849.97;;;-10.97;100.00
11413;BME280;5762;43.256;26.960;2023-02-10T05:38:33;101846.35;;;-10.89;100.00
11413;BME280;5762;43.256;26.960;2023-02-10T05:41:02;101844.62;;;-10.82;100.00
11413;BME280;5762;43.256;26.960;2023-02-10T05:43:31;101853.05;;;-11.15;100.00
11413;BME280;5762;43.256;26.960;2023-02-10T05:46:00;101857.44;;;-11.16;100.00
11413;BME280;5762;43.256;26.960;2023-02-10T05:48:29;101851.89;;;-11.24;100.00
11413;BME280;5762;43.256;26.960;2023-02-10T05:50:57;101857.17;;;-11.31;100.00
11413;BME280;5762;43.256;26.960;2023-02-10T05:53:26;101855.97;;;-11.20;100.00
11413;BME280;5762;43.256;26.960;2023-02-10T05:55:55;101858.73;;;-11.41;100.00
11413;BME280;5762;43.256;26.960;2023-02-10T05:58:24;101867.88;;;-11.29;100.00
11413;BME280;5762;43.256;26.960;2023-02-10T06:00:53;101858.58;;;-11.20;100.00
11413;BME280;5762;43.256;26.960;2023-02-10T06:03:22;101864.98;;;-11.06;100.00
11413;BME280;5762;43.256;26.960;2023-02-10T06:05:51;101857.40;;;-11.03;100.00
11413;BME280;5762;43.256;26.960;2023-02-10T06:08:20;101851.05;;;-11.12;100.00
11413;BME280;5762;43.256;26.960;2023-02-10T06:10:48;101852.83;;;-11.25;100.00
11413;BME280;5762;43.256;26.960;2023-02-10T06:13:17;101852.78;;;-11.18;100.00
11413;BME280;5762;43.256;26.960;2023-02-10T06:15:46;101856.55;;;-11.09;100.00
11413;BME280;5762;43.256;26.960;2023-02-10T06:18:15;101857.77;;;-11.02;100.00
11413;BME280;5762;43.256;26.960;2023-02-10T06:20:46;101859.38;;;-10.94;100.00
11413;BME280;5762;43.256;26.960;2023-02-10T06:23:15;101865.34;;;-10.92;100.00
11413;BME280;5762;43.256;26.960;2023-02-10T06:25:44;101869.05;;;-10.89;100.00
11413;BME280;5762;43.256;26.960;2023-02-10T06:28:13;101867.53;;;-10.86;100.00
11413;BME280;5762;43.256;26.960;2023-02-10T06:30:42;101870.45;;;-10.72;100.00
11413;BME280;5762;43.256;26.960;2023-02-10T06:33:11;101877.25;;;-10.70;100.00
11413;BME280;5762;43.256;26.960;2023-02-10T06:35:39;101872.16;;;-10.53;100.00
11413;BME280;5762;43.256;26.960;2023-02-10T06:38:08;101881.50;;;-10.38;100.00
11413;BME280;5762;43.256;26.960;2023-02-10T06:40:37;101883.97;;;-10.24;100.00
11413;BME280;5762;43.256;26.960;2023-02-10T06:43:06;101884.22;;;-10.21;100.00
11413;BME280;5762;43.256;26.960;2023-02-10T06:45:35;101878.77;;;-10.12;100.00
11413;BME280;5762;43.256;26.960;2023-02-10T06:48:04;101886.06;;;-10.05;100.00
11413;BME280;5762;43.256;26.960;2023-02-10T06:50:33;101893.84;;;-9.92;100.00
11413;BME280;5762;43.256;26.960;2023-02-10T06:53:01;101895.45;;;-9.78;100.00
11413;BME280;5762;43.256;26.960;2023-02-10T06:55:30;101896.19;;;-9.65;100.00
11413;BME280;5762;43.256;26.960;2023-02-10T06:57:58;101891.45;;;-9.60;100.00
11413;BME280;5762;43.256;26.960;2023-02-10T07:00:26;101897.83;;;-9.40;100.00
11413;BME280;5762;43.256;26.960;2023-02-10T07:02:55;101892.72;;;-9.36;100.00
11413;BME280;5762;43.256;26.960;2023-02-10T07:05:23;101897.97;;;-9.20;100.00
11413;BME280;5762;43.256;26.960;2023-02-10T07:07:52;101891.44;;;-9.03;100.00
11413;BME280;5762;43.256;26.960;2023-02-10T07:10:21;101883.58;;;-9.03;100.00
11413;BME280;5762;43.256;26.960;2023-02-10T07:12:49;101885.95;;;-8.77;100.00
11413;BME280;5762;43.256;26.960;2023-02-10T07:15:18;101878.99;;;-8.56;100.00
11413;BME280;5762;43.256;26.960;2023-02-10T07:17:47;101886.87;;;-8.56;100.00
11413;BME280;5762;43.256;26.960;2023-02-10T07:20:17;101882.80;;;-8.43;100.00
11413;BME280;5762;43.256;26.960;2023-02-10T07:22:45;101875.99;;;-8.40;100.00
11413;BME280;5762;43.256;26.960;2023-02-10T07:25:13;101875.08;;;-8.30;100.00
11413;BME280;5762;43.256;26.960;2023-02-10T07:27:42;101883.18;;;-7.90;100.00
11413;BME280;5762;43.256;26.960;2023-02-10T07:30:12;101886.66;;;-7.63;100.00
11413;BME280;5762;43.256;26.960;2023-02-10T07:32:41;101886.83;;;-7.55;100.00
11413;BME280;5762;43.256;26.960;2023-02-10T07:35:10;101890.58;;;-7.21;100.00
11413;BME280;5762;43.256;26.960;2023-02-10T07:37:39;101886.36;;;-6.97;100.00
11413;BME280;5762;43.256;26.960;2023-02-10T07:40:08;101882.87;;;-6.83;100.00
11413;BME280;5762;43.256;26.960;2023-02-10T07:42:36;101889.49;;;-6.73;100.00
11413;BME280;5762;43.256;26.960;2023-02-10T07:45:05;101881.77;;;-6.65;100.00
11413;BME280;5762;43.256;26.960;2023-02-10T07:47:34;101878.44;;;-6.57;100.00
11413;BME280;5762;43.256;26.960;2023-02-10T07:50:03;101876.97;;;-6.40;100.00
11413;BME280;5762;43.256;26.960;2023-02-10T07:52:31;101873.60;;;-6.62;100.00
11413;BME280;5762;43.256;26.960;2023-02-10T07:55:00;101869.16;;;-6.17;100.00
11413;BME280;5762;43.256;26.960;2023-02-10T07:57:28;101874.53;;;-6.03;100.00
11413;BME280;5762;43.256;26.960;2023-02-10T07:59:57;101877.36;;;-6.11;100.00
11413;BME280;5762;43.256;26.960;2023-02-10T08:02:26;101873.47;;;-6.26;100.00
11413;BME280;5762;43.256;26.960;2023-02-10T08:04:55;101874.47;;;-5.98;100.00
11413;BME280;5762;43.256;26.960;2023-02-10T08:07:24;101877.75;;;-5.86;100.00
11413;BME280;5762;43.256;26.960;2023-02-10T08:09:53;101856.30;;;-5.91;100.00
11413;BME280;5762;43.256;26.960;2023-02-10T08:12:22;101864.64;;;-5.72;100.00
11413;BME280;5762;43.256;26.960;2023-02-10T08:14:51;101874.23;;;-5.38;100.00
11413;BME280;5762;43.256;26.960;2023-02-10T08:17:20;101872.84;;;-5.33;100.00
11413;BME280;5762;43.256;26.960;2023-02-10T08:19:49;101866.73;;;-5.10;100.00
11413;BME280;5762;43.256;26.960;2023-02-10T08:22:17;101867.56;;;-5.10;100.00
11413;BME280;5762;43.256;26.960;2023-02-10T08:24:46;101868.90;;;-5.19;100.00
11413;BME280;5762;43.256;26.960;2023-02-10T08:27:15;101857.31;;;-4.99;100.00
11413;BME280;5762;43.256;26.960;2023-02-10T08:29:43;101863.28;;;-4.83;100.00
11413;BME280;5762;43.256;26.960;2023-02-10T08:32:12;101869.11;;;-4.80;100.00
11413;BME280;5762;43.256;26.960;2023-02-10T08:34:42;101861.05;;;-4.64;100.00
11413;BME280;5762;43.256;26.960;2023-02-10T08:37:10;101854.47;;;-4.33;100.00
11413;BME280;5762;43.256;26.960;2023-02-10T08:39:39;101850.36;;;-4.14;100.00
11413;BME280;5762;43.256;26.960;2023-02-10T08:42:07;101849.27;;;-4.07;100.00
11413;BME280;5762;43.256;26.960;2023-02-10T08:44:36;101849.77;;;-3.90;100.00
11413;BME280;5762;43.256;26.960;2023-02-10T08:47:05;101850.83;;;-3.83;100.00
11413;BME280;5762;43.256;26.960;2023-02-10T08:49:34;101857.33;;;-3.55;100.00
11413;BME280;5762;43.256;26.960;2023-02-10T08:52:02;101852.69;;;-3.31;100.00
11413;BME280;5762;43.256;26.960;2023-02-10T08:54:31;101848.43;;;-3.24;100.00
11413;BME280;5762;43.256;26.960;2023-02-10T08:56:59;101845.66;;;-3.19;100.00
11413;BME280;5762;43.256;26.960;2023-02-10T08:59:28;101845.15;;;-2.88;100.00
11413;BME280;5762;43.256;26.960;2023-02-10T09:01:57;101840.39;;;-3.15;100.00
11413;BME280;5762;43.256;26.960;2023-02-10T09:04:26;101832.98;;;-3.03;100.00
11413;BME280;5762;43.256;26.960;2023-02-10T09:06:54;101836.28;;;-2.67;100.00
11413;BME280;5762;43.256;26.960;2023-02-10T09:09:23;101832.32;;;-2.63;100.00
11413;BME280;5762;43.256;26.960;2023-02-10T09:11:53;101834.54;;;-2.38;100.00
11413;BME280;5762;43.256;26.960;2023-02-10T09:14:21;101830.88;;;-2.41;100.00
11413;BME280;5762;43.256;26.960;2023-02-10T09:16:50;101822.76;;;-2.52;100.00
11413;BME280;5762;43.256;26.960;2023-02-10T09:19:18;101819.13;;;-2.47;100.00
11413;BME280;5762;43.256;26.960;2023-02-10T09:21:47;101815.36;;;-2.20;100.00
11413;BME280;5762;43.256;26.960;2023-02-10T09:24:16;101816.67;;;-2.28;100.00
11413;BME280;5762;43.256;26.960;2023-02-10T09:26:45;101816.03;;;-2.18;100.00
11413;BME280;5762;43.256;26.960;2023-02-10T09:29:14;101802.61;;;-1.96;100.00
11413;BME280;5762;43.256;26.960;2023-02-10T09:31:43;101806.93;;;-1.79;100.00
11413;BME280;5762;43.256;26.960;2023-02-10T09:34:12;101801.42;;;-1.49;100.00
11413;BME280;5762;43.256;26.960;2023-02-10T09:36:41;101797.09;;;-1.42;100.00
11413;BME280;5762;43.256;26.960;2023-02-10T09:39:09;101787.05;;;-1.15;100.00
11413;BME280;5762;43.256;26.960;2023-02-10T09:41:44;101781.91;;;-1.13;100.00
11413;BME280;5762;43.256;26.960;2023-02-10T09:44:16;101778.06;;;-1.06;100.00
11413;BME280;5762;43.256;26.960;2023-02-10T09:54:40;101778.10;;;-1.22;100.00
11413;BME280;5762;43.256;26.960;2023-02-10T09:57:14;101770.13;;;-1.18;100.00
11413;BME280;5762;43.256;26.960;2023-02-10T09:59:39;101765.69;;;-0.91;100.00
11413;BME280;5762;43.256;26.960;2023-02-10T10:02:11;101760.89;;;-0.64;100.00
11413;BME280;5762;43.256;26.960;2023-02-10T10:04:38;101754.67;;;-0.30;100.00
11413;BME280;5762;43.256;26.960;2023-02-10T10:09:44;101751.58;;;0.04;100.00
11413;BME280;5762;43.256;26.960;2023-02-10T10:12:16;101751.75;;;0.03;100.00
11413;BME280;5762;43.256;26.960;2023-02-10T10:14:42;101743.70;;;0.11;100.00
11413;BME280;5762;43.256;26.960;2023-02-10T10:20:20;101739.42;;;0.24;100.00
11413;BME280;5762;43.256;26.960;2023-02-10T10:35:43;101717.72;;;0.46;100.00
11413;BME280;5762;43.256;26.960;2023-02-10T10:38:23;101722.39;;;0.74;100.00
11413;BME280;5762;43.256;26.960;2023-02-10T10:40:43;101715.03;;;0.90;100.00
11413;BME280;5762;43.256;26.960;2023-02-10T10:43:17;101713.41;;;1.00;100.00
11413;BME280;5762;43.256;26.960;2023-02-10T10:45:48;101708.91;;;1.00;100.00
11413;BME280;5762;43.256;26.960;2023-02-10T10:48:15;101703.37;;;0.77;100.00
11413;BME280;5762;43.256;26.960;2023-02-10T10:50:43;101705.70;;;0.90;100.00
11413;BME280;5762;43.256;26.960;2023-02-10T10:53:18;101698.30;;;1.07;100.00
11413;BME280;5762;43.256;26.960;2023-02-10T10:55:42;101700.54;;;1.04;100.00
11413;BME280;5762;43.256;26.960;2023-02-10T11:00:59;101690.67;;;1.04;100.00
11413;BME280;5762;43.256;26.960;2023-02-10T11:03:28;101689.92;;;1.10;100.00
11413;BME280;5762;43.256;26.960;2023-02-10T11:06:04;101681.50;;;1.17;100.00
11413;BME280;5762;43.256;26.960;2023-02-10T11:08:36;101682.16;;;1.30;100.00
11413;BME280;5762;43.256;26.960;2023-02-10T11:11:05;101668.80;;;1.19;100.00
11413;BME280;5762;43.256;26.960;2023-02-10T11:13:36;101665.13;;;1.31;100.00
11413;BME280;5762;43.256;26.960;2023-02-10T11:16:09;101664.30;;;1.30;100.00
11413;BME280;5762;43.256;26.960;2023-02-10T11:18:34;101669.45;;;1.32;100.00
11413;BME280;5762;43.256;26.960;2023-02-10T11:21:09;101668.63;;;1.31;100.00
11413;BME280;5762;43.256;26.960;2023-02-10T11:23:35;101671.16;;;1.29;100.00
11413;BME280;5762;43.256;26.960;2023-02-10T11:26:03;101663.66;;;1.60;100.00
11413;BME280;5762;43.256;26.960;2023-02-10T11:28:31;101656.35;;;1.48;100.00
11413;BME280;5762;43.256;26.960;2023-02-10T11:31:01;101654.70;;;1.57;100.00
11413;BME280;5762;43.256;26.960;2023-02-10T11:33:30;101639.89;;;1.65;100.00
11413;BME280;5762;43.256;26.960;2023-02-10T11:36:08;101642.30;;;1.71;100.00
11413;BME280;5762;43.256;26.960;2023-02-10T11:38:37;101641.31;;;1.79;100.00
11413;BME280;5762;43.256;26.960;2023-02-10T11:41:07;101634.05;;;1.94;100.00
11413;BME280;5762;43.256;26.960;2023-02-10T11:43:46;101641.02;;;2.06;100.00
11413;BME280;5762;43.256;26.960;2023-02-10T11:46:05;101636.13;;;1.98;100.00
11413;BME280;5762;43.256;26.960;2023-02-10T11:48:34;101635.95;;;1.89;100.00
11413;BME280;5762;43.256;26.960;2023-02-10T11:51:15;101629.89;;;2.02;100.00
11413;BME280;5762;43.256;26.960;2023-02-10T11:53:44;101630.31;;;2.23;100.00
11413;BME280;5762;43.256;26.960;2023-02-10T11:56:22;101632.52;;;2.30;100.00
11413;BME280;5762;43.256;26.960;2023-02-10T11:58:52;101633.86;;;2.30;100.00
11413;BME280;5762;43.256;26.960;2023-02-10T12:12:00;101624.70;;;2.28;99.72
11413;BME280;5762;43.256;26.960;2023-02-10T12:17:01;101621.56;;;2.35;94.87
11413;BME280;5762;43.256;26.960;2023-02-10T12:19:39;101623.25;;;2.26;91.57
11413;BME280;5762;43.256;26.960;2023-02-10T12:27:25;101614.02;;;1.94;79.40
11413;BME280;5762;43.256;26.960;2023-02-10T12:30:01;101606.37;;;2.01;81.94
11413;BME280;5762;43.256;26.960;2023-02-10T12:35:17;101610.95;;;2.14;76.92
11413;BME280;5762;43.256;26.960;2023-02-10T12:37:52;101603.46;;;1.96;81.57
11413;BME280;5762;43.256;26.960;2023-02-10T12:40:27;101595.69;;;2.01;81.72
11413;BME280;5762;43.256;26.960;2023-02-10T12:45:44;101596.47;;;1.95;74.85
11413;BME280;5762;43.256;26.960;2023-02-10T12:48:24;101595.30;;;2.05;72.89
11413;BME280;5762;43.256;26.960;2023-02-10T12:50:57;101590.36;;;2.08;71.50
11413;BME280;5762;43.256;26.960;2023-02-10T12:53:22;101586.17;;;1.92;71.99
11413;BME280;5762;43.256;26.960;2023-02-10T12:56:02;101601.66;;;2.04;74.58
11413;BME280;5762;43.256;26.960;2023-02-10T12:58:38;101599.83;;;2.28;75.49
11413;BME280;5762;43.256;26.960;2023-02-10T13:01:13;101595.82;;;2.11;76.36
11413;BME280;5762;43.256;26.960;2023-02-10T13:03:42;101593.63;;;2.21;76.06
11413;BME280;5762;43.256;26.960;2023-02-10T13:06:17;101588.48;;;2.19;77.14
11413;BME280;5762;43.256;26.960;2023-02-10T13:08:49;101570.67;;;2.33;84.59
11413;BME280;5762;43.256;26.960;2023-02-10T13:11:20;101580.97;;;2.43;80.34
11413;BME280;5762;43.256;26.960;2023-02-10T13:13:46;101583.05;;;2.41;79.13
11413;BME280;5762;43.256;26.960;2023-02-10T13:16:16;101583.91;;;2.54;74.35
11413;BME280;5762;43.256;26.960;2023-02-10T13:21:27;101584.53;;;2.56;76.24
11413;BME280;5762;43.256;26.960;2023-02-10T13:24:00;101578.92;;;2.38;78.36
11413;BME280;5762;43.256;26.960;2023-02-10T13:26:29;101579.70;;;2.56;83.18
11413;BME280;5762;43.256;26.960;2023-02-10T13:31:48;101576.05;;;2.70;86.20
11413;BME280;5762;43.256;26.960;2023-02-10T13:34:21;101572.78;;;2.75;83.12
11413;BME280;5762;43.256;26.960;2023-02-10T13:39:29;101575.75;;;2.82;79.61
11413;BME280;5762;43.256;26.960;2023-02-10T13:42:09;101573.95;;;2.59;74.11
11413;BME280;5762;43.256;26.960;2023-02-10T13:44:37;101574.78;;;2.59;74.72
11413;BME280;5762;43.256;26.960;2023-02-10T13:47:11;101572.66;;;2.79;73.50
11413;BME280;5762;43.256;26.960;2023-02-10T13:49:47;101568.63;;;2.65;69.98
11413;BME280;5762;43.256;26.960;2023-02-10T13:52:12;101566.60;;;2.81;73.53
11413;BME280;5762;43.256;26.960;2023-02-10T13:54:37;101563.20;;;2.69;67.15
11413;BME280;5762;43.256;26.960;2023-02-10T13:57:21;101566.60;;;2.81;62.92
11413;BME280;5762;43.256;26.960;2023-02-10T13:59:37;101573.49;;;2.73;58.47
11413;BME280;5762;43.256;26.960;2023-02-10T14:02:39;101572.76;;;2.68;52.43
11413;BME280;5762;43.256;26.960;2023-02-10T14:04:44;101577.22;;;2.54;51.32
11413;BME280;5762;43.256;26.960;2023-02-10T14:07:16;101576.96;;;2.36;64.91
11413;BME280;5762;43.256;26.960;2023-02-10T14:09:46;101574.61;;;2.20;79.07